createdAt,value
2018-09-05T00:01:49.269Z,7.50
2018-09-05T00:04:17.115Z,6.73
2018-09-05T00:06:44.843Z,7.03
2018-09-05T00:09:12.595Z,6.87
2018-09-05T00:11:40.411Z,7.20
2018-09-05T00:14:08.550Z,6.93
2018-09-05T00:16:36.297Z,6.63
2018-09-05T00:19:04.206Z,7.40
2018-09-05T00:21:32.011Z,7.60
2018-09-05T00:23:59.786Z,9.17
2018-09-05T00:26:27.631Z,7.30
2018-09-05T00:28:55.393Z,7.13
2018-09-05T00:31:23.233Z,7.10
2018-09-05T00:33:51.115Z,6.57
2018-09-05T00:36:18.921Z,7.23
2018-09-05T00:38:46.714Z,7.57
2018-09-05T00:41:14.433Z,7.13
2018-09-05T00:43:42.147Z,7.50
2018-09-05T00:46:09.172Z,7.03
2018-09-05T00:48:36.953Z,6.97
2018-09-05T00:51:04.854Z,7.07
2018-09-05T00:53:32.599Z,6.80
2018-09-05T00:56:00.375Z,7.77
2018-09-05T00:58:28.147Z,7.93
2018-09-05T01:00:55.923Z,8.20
2018-09-05T01:03:23.700Z,6.20
2018-09-05T01:05:51.354Z,5.10
2018-09-05T01:08:19.009Z,5.87
2018-09-05T01:10:46.697Z,5.57
2018-09-05T01:13:14.370Z,5.47
2018-09-05T01:15:42.158Z,5.17
2018-09-05T01:18:09.846Z,5.30
2018-09-05T01:20:37.595Z,6.60
2018-09-05T01:23:05.270Z,6.40
2018-09-05T01:25:32.977Z,7.63
2018-09-05T01:28:00.622Z,7.20
2018-09-05T01:30:28.842Z,6.37
2018-09-05T01:32:57.809Z,7.27
2018-09-05T01:35:25.561Z,7.87
2018-09-05T01:37:53.367Z,6.87
2018-09-05T01:40:21.086Z,6.17
2018-09-05T01:42:48.785Z,6.63
2018-09-05T01:45:16.461Z,6.73
2018-09-05T01:47:44.166Z,6.20
2018-09-05T01:50:11.898Z,4.87
2018-09-05T01:52:39.565Z,5.17
2018-09-05T01:55:07.312Z,5.60
2018-09-05T01:57:34.971Z,4.77
2018-09-05T02:00:02.754Z,5.23
2018-09-05T02:02:30.461Z,5.17
2018-09-05T02:04:58.231Z,4.60
2018-09-05T02:07:25.919Z,4.73
2018-09-05T02:09:53.642Z,5.17
2018-09-05T02:12:21.345Z,5.07
2018-09-05T02:14:49.032Z,5.30
2018-09-05T02:17:16.748Z,4.97
2018-09-05T02:19:44.421Z,5.20
2018-09-05T02:22:12.100Z,5.10
2018-09-05T02:24:39.828Z,4.80
2018-09-05T02:27:07.801Z,5.80
2018-09-05T02:29:35.449Z,5.87
2018-09-05T02:32:03.316Z,6.43
2018-09-05T02:34:30.997Z,6.57
2018-09-05T02:36:58.686Z,6.77
2018-09-05T02:39:26.374Z,6.47
2018-09-05T02:41:54.059Z,5.90
2018-09-05T02:44:23.175Z,6.77
2018-09-05T02:46:51.337Z,5.53
2018-09-05T02:49:19.041Z,6.50
2018-09-05T02:51:46.954Z,5.77
2018-09-05T02:54:14.629Z,5.87
2018-09-05T02:56:42.314Z,6.20
2018-09-05T02:59:10.006Z,5.53
2018-09-05T03:01:37.735Z,5.83
2018-09-05T03:04:05.588Z,5.40
2018-09-05T03:06:33.242Z,5.30
2018-09-05T03:09:00.939Z,5.30
2018-09-05T03:11:28.620Z,5.77
2018-09-05T03:13:56.298Z,5.27
2018-09-05T03:16:23.984Z,5.60
2018-09-05T03:18:51.886Z,5.20
2018-09-05T03:21:19.715Z,5.53
2018-09-05T03:23:47.400Z,5.63
2018-09-05T03:26:15.094Z,5.40
2018-09-05T03:28:42.747Z,6.40
2018-09-05T03:31:10.434Z,5.20
2018-09-05T03:33:38.181Z,5.20
2018-09-05T03:36:05.857Z,6.00
2018-09-05T03:38:33.555Z,5.00
2018-09-05T03:41:01.233Z,6.10
2018-09-05T03:43:28.907Z,6.30
2018-09-05T03:46:02.130Z,6.53
2018-09-05T03:48:29.781Z,5.70
2018-09-05T03:50:57.434Z,6.03
2018-09-05T03:53:26.291Z,5.80
2018-09-05T03:55:54.520Z,7.10
2018-09-05T03:58:22.247Z,6.17
2018-09-05T04:00:49.970Z,7.77
2018-09-05T04:03:17.636Z,5.97
2018-09-05T04:05:45.322Z,6.27
2018-09-05T04:08:13.038Z,6.77
2018-09-05T04:10:40.825Z,7.30
2018-09-05T04:13:08.497Z,6.07
2018-09-05T04:15:36.204Z,5.37
2018-09-05T04:18:03.880Z,5.60
2018-09-05T04:20:31.594Z,5.23
2018-09-05T04:22:59.290Z,5.17
2018-09-05T04:25:26.959Z,5.67
2018-09-05T04:27:54.644Z,5.87
2018-09-05T04:30:22.391Z,6.00
2018-09-05T04:32:50.073Z,5.07
2018-09-05T04:35:17.830Z,6.27
2018-09-05T04:37:45.534Z,6.57
2018-09-05T04:40:13.279Z,7.20
2018-09-05T04:42:40.989Z,7.13
2018-09-05T04:45:08.745Z,8.33
2018-09-05T04:47:36.786Z,9.53
2018-09-05T04:50:04.749Z,9.60
2018-09-05T04:52:32.536Z,9.80
2018-09-05T04:55:00.157Z,10.20
2018-09-05T04:57:27.841Z,10.40
2018-09-05T04:59:55.518Z,10.67
2018-09-05T05:02:23.299Z,12.27
2018-09-05T05:04:51.078Z,12.57
2018-09-05T05:07:18.762Z,13.03
2018-09-05T05:09:46.454Z,14.23
2018-09-05T05:12:14.112Z,14.20
2018-09-05T05:14:41.817Z,14.33
2018-09-05T05:17:09.483Z,13.93
2018-09-05T05:19:37.195Z,13.43
2018-09-05T05:22:05.110Z,13.93
2018-09-05T05:24:32.804Z,13.13
2018-09-05T05:27:00.501Z,13.43
2018-09-05T05:29:28.265Z,13.67
2018-09-05T05:31:55.945Z,13.40
2018-09-05T05:34:23.704Z,14.30
2018-09-05T05:36:51.416Z,14.27
2018-09-05T05:39:19.049Z,14.57
2018-09-05T05:41:46.710Z,14.63
2018-09-05T05:44:14.467Z,15.47
2018-09-05T05:46:42.251Z,16.00
2018-09-05T05:49:09.859Z,14.30
2018-09-05T05:51:37.582Z,13.93
2018-09-05T05:54:05.401Z,15.03
2018-09-05T05:56:33.102Z,14.13
2018-09-05T05:59:00.800Z,13.73
2018-09-05T06:01:28.458Z,12.80
2018-09-05T06:03:56.125Z,14.20
2018-09-05T06:06:23.977Z,13.90
2018-09-05T06:08:51.554Z,12.10
2018-09-05T06:11:19.243Z,11.77
2018-09-05T06:13:46.985Z,11.50
2018-09-05T06:16:14.630Z,11.20
2018-09-05T06:18:42.305Z,10.90
2018-09-05T06:21:10.137Z,11.63
2018-09-05T06:23:37.747Z,10.77
2018-09-05T06:26:05.657Z,10.80
2018-09-05T06:28:33.398Z,10.63
2018-09-05T06:31:01.151Z,10.53
2018-09-05T06:33:28.758Z,11.67
2018-09-05T06:35:56.453Z,10.73
2018-09-05T06:38:24.113Z,9.77
2018-09-05T06:40:51.767Z,9.57
2018-09-05T06:43:19.479Z,10.00
2018-09-05T06:45:47.134Z,9.07
2018-09-05T06:48:14.881Z,8.87
2018-09-05T06:50:42.570Z,9.43
2018-09-05T06:53:10.225Z,9.90
2018-09-05T06:55:37.898Z,9.30
2018-09-05T06:58:05.725Z,9.10
2018-09-05T07:00:33.500Z,8.90
2018-09-05T07:03:01.265Z,8.43
2018-09-05T07:05:29.068Z,9.47
2018-09-05T07:07:56.781Z,9.03
2018-09-05T07:10:24.468Z,8.63
2018-09-05T07:12:52.162Z,9.37
2018-09-05T07:15:19.826Z,9.83
2018-09-05T07:17:47.514Z,8.97
2018-09-05T07:20:15.245Z,9.33
2018-09-05T07:22:42.975Z,9.40
2018-09-05T07:25:10.653Z,9.77
2018-09-05T07:27:38.444Z,10.33
2018-09-05T07:30:06.231Z,10.00
2018-09-05T07:32:33.888Z,8.70
2018-09-05T07:35:01.638Z,10.47
2018-09-05T07:37:29.331Z,9.77
2018-09-05T07:39:57.077Z,9.13
2018-09-05T07:42:24.790Z,9.63
2018-09-05T07:44:52.461Z,9.50
2018-09-05T07:47:20.118Z,9.63
2018-09-05T07:49:47.815Z,9.70
2018-09-05T07:52:15.531Z,8.93
2018-09-05T07:54:43.335Z,7.77
2018-09-05T07:57:11.098Z,8.10
2018-09-05T07:59:38.818Z,8.53
2018-09-05T08:02:06.512Z,8.73
2018-09-05T08:04:34.321Z,7.97
2018-09-05T08:07:02.046Z,8.83
2018-09-05T08:09:29.719Z,9.17
2018-09-05T08:11:57.453Z,8.40
2018-09-05T08:14:25.150Z,8.00
2018-09-05T08:16:52.847Z,9.03
2018-09-05T08:19:20.606Z,8.67
2018-09-05T08:21:48.277Z,8.40
2018-09-05T08:24:16.441Z,9.57
2018-09-05T08:26:44.145Z,9.20
2018-09-05T08:29:11.834Z,8.53
2018-09-05T08:31:39.544Z,9.10
2018-09-05T08:34:07.236Z,8.50
2018-09-05T08:36:35.114Z,8.70
2018-09-05T08:39:02.847Z,8.60
2018-09-05T08:41:30.707Z,9.00
2018-09-05T08:43:58.379Z,8.27
2018-09-05T08:46:26.048Z,8.70
2018-09-05T08:48:53.765Z,8.80
2018-09-05T08:51:21.450Z,9.63
2018-09-05T08:53:49.982Z,9.30
2018-09-05T08:56:17.783Z,8.63
2018-09-05T08:58:45.545Z,8.70
2018-09-05T09:01:13.213Z,8.83
2018-09-05T09:03:40.909Z,9.13
2018-09-05T09:06:08.717Z,9.23
2018-09-05T09:08:36.409Z,8.80
2018-09-05T09:11:04.134Z,8.97
2018-09-05T09:13:31.822Z,8.07
2018-09-05T09:15:59.525Z,8.07
2018-09-05T09:18:27.336Z,8.30
2018-09-05T09:20:55.041Z,7.90
2018-09-05T09:23:22.763Z,7.80
2018-09-05T09:25:50.512Z,7.70
2018-09-05T09:28:18.253Z,7.90
2018-09-05T09:30:45.986Z,7.37
2018-09-05T09:33:13.711Z,8.00
2018-09-05T09:35:41.485Z,7.70
2018-09-05T09:38:09.282Z,7.57
2018-09-05T09:40:37.117Z,6.57
2018-09-05T09:43:04.814Z,7.80
2018-09-05T09:45:32.672Z,8.00
2018-09-05T09:48:00.382Z,8.27
2018-09-05T09:50:28.203Z,8.30
2018-09-05T09:52:55.887Z,8.60
2018-09-05T09:55:23.641Z,7.17
2018-09-05T09:57:51.356Z,8.93
2018-09-05T10:00:25.233Z,9.30
2018-09-05T10:02:58.393Z,8.03
2018-09-05T10:05:31.565Z,9.17
2018-09-05T10:08:04.821Z,8.73
2018-09-05T10:10:38.248Z,8.80
2018-09-05T10:13:11.483Z,8.87
2018-09-05T10:15:44.922Z,9.10
2018-09-05T10:18:30.101Z,8.47
2018-09-05T10:20:58.290Z,8.63
2018-09-05T10:23:26.210Z,7.53
2018-09-05T10:25:54.004Z,8.30
2018-09-05T10:28:21.758Z,7.37
2018-09-05T10:30:49.669Z,7.07
2018-09-05T10:33:17.578Z,7.73
2018-09-05T10:35:45.277Z,7.20
2018-09-05T10:38:12.977Z,7.17
2018-09-05T10:40:40.720Z,6.40
2018-09-05T10:43:08.465Z,6.77
2018-09-05T10:45:36.164Z,6.60
2018-09-05T10:48:04.110Z,6.90
2018-09-05T10:50:31.964Z,7.43
2018-09-05T10:52:59.701Z,7.30
2018-09-05T10:55:27.435Z,7.37
2018-09-05T10:57:55.174Z,8.40
2018-09-05T11:00:22.850Z,7.40
2018-09-05T11:02:50.523Z,8.03
2018-09-05T11:05:18.258Z,7.23
2018-09-05T11:07:46.020Z,8.40
2018-09-05T11:10:13.743Z,7.97
2018-09-05T11:12:41.452Z,8.23
2018-09-05T11:15:09.135Z,8.30
2018-09-05T11:17:36.814Z,7.37
2018-09-05T11:20:05.103Z,7.83
2018-09-05T11:22:32.753Z,7.90
2018-09-05T11:25:00.469Z,7.77
2018-09-05T11:27:28.190Z,8.13
2018-09-05T11:29:55.872Z,8.27
2018-09-05T11:32:23.553Z,7.53
2018-09-05T11:34:51.237Z,7.80
2018-09-05T11:37:18.905Z,8.13
2018-09-05T11:39:46.571Z,7.80
2018-09-05T11:42:14.258Z,7.20
2018-09-05T11:44:41.921Z,8.37
2018-09-05T11:47:09.569Z,7.47
2018-09-05T11:49:37.306Z,7.77
2018-09-05T11:52:05.028Z,8.27
2018-09-05T11:54:32.697Z,8.80
2018-09-05T11:57:00.426Z,8.60
2018-09-05T11:59:28.101Z,9.13
2018-09-05T12:01:55.918Z,8.57
2018-09-05T12:04:23.631Z,8.27
2018-09-05T12:06:51.432Z,7.70
2018-09-05T12:09:19.169Z,8.07
2018-09-05T12:11:46.885Z,7.97
2018-09-05T12:14:14.594Z,7.53
2018-09-05T12:16:42.367Z,7.83
2018-09-05T12:19:10.083Z,8.00
2018-09-05T12:21:37.784Z,8.27
2018-09-05T12:24:05.457Z,7.93
2018-09-05T12:26:33.451Z,7.70
2018-09-05T12:29:01.840Z,7.77
2018-09-05T12:31:29.564Z,8.83
2018-09-05T12:33:57.288Z,7.70
2018-09-05T12:36:25.028Z,8.83
2018-09-05T12:38:52.797Z,8.23
2018-09-05T12:41:20.503Z,7.93
2018-09-05T12:43:48.168Z,8.37
2018-09-05T12:46:15.874Z,8.40
2018-09-05T12:48:43.602Z,7.77
2018-09-05T12:51:11.375Z,7.60
2018-09-05T12:53:39.116Z,8.00
2018-09-05T12:56:06.855Z,7.57
2018-09-05T12:58:34.573Z,7.53
2018-09-05T13:01:02.425Z,7.57
2018-09-05T13:03:30.243Z,8.13
2018-09-05T13:05:57.943Z,7.40
2018-09-05T13:08:25.659Z,7.97
2018-09-05T13:10:53.365Z,7.93
2018-09-05T13:13:21.071Z,7.90
2018-09-05T13:15:48.767Z,7.77
2018-09-05T13:18:16.489Z,7.70
2018-09-05T13:20:44.258Z,8.23
2018-09-05T13:23:11.933Z,8.27
2018-09-05T13:25:39.672Z,8.13
2018-09-05T13:28:07.410Z,8.07
2018-09-05T13:30:35.115Z,8.60
2018-09-05T13:33:02.908Z,8.53
2018-09-05T13:35:30.641Z,7.13
2018-09-05T13:37:58.369Z,7.50
2018-09-05T13:40:26.107Z,7.70
2018-09-05T13:42:53.885Z,8.03
2018-09-05T13:45:21.626Z,7.97
2018-09-05T13:47:49.401Z,8.20
2018-09-05T13:50:17.089Z,9.17
2018-09-05T13:52:44.757Z,8.10
2018-09-05T13:55:12.477Z,8.57
2018-09-05T13:57:40.245Z,8.47
2018-09-05T14:00:12.444Z,9.20
2018-09-05T14:02:40.171Z,9.90
2018-09-05T14:05:07.862Z,10.10
2018-09-05T14:07:35.594Z,10.20
2018-09-05T14:10:03.399Z,10.70
2018-09-05T14:12:31.082Z,11.67
2018-09-05T14:14:58.905Z,12.60
2018-09-05T14:17:26.588Z,15.90
2018-09-05T14:19:54.302Z,10.70
2018-09-05T14:22:21.971Z,12.50
2018-09-05T14:24:49.694Z,18.57
2018-09-05T14:27:17.361Z,19.53
2018-09-05T14:29:45.125Z,15.80
2018-09-05T14:32:12.894Z,14.80
2018-09-05T14:34:40.625Z,14.87
2018-09-05T14:37:08.344Z,14.83
2018-09-05T14:39:36.053Z,15.03
2018-09-05T14:42:03.763Z,16.07
2018-09-05T14:44:31.508Z,15.60
2018-09-05T14:46:59.241Z,18.20
2018-09-05T14:49:26.908Z,14.67
2018-09-05T14:51:54.678Z,13.13
2018-09-05T14:54:22.419Z,13.40
2018-09-05T14:56:50.153Z,8.73
2018-09-05T14:59:17.925Z,12.63
2018-09-05T15:01:45.649Z,11.00
2018-09-05T15:04:13.466Z,10.90
2018-09-05T15:06:41.202Z,10.40
2018-09-05T15:09:11.069Z,10.17
2018-09-05T15:11:38.805Z,15.43
2018-09-05T15:14:07.005Z,13.77
2018-09-05T15:16:34.820Z,16.80
2018-09-05T15:19:02.558Z,17.83
2018-09-05T15:21:30.325Z,15.13
2018-09-05T15:23:58.028Z,17.53
2018-09-05T15:26:25.763Z,15.93
2018-09-05T15:28:53.635Z,15.60
2018-09-05T15:31:21.538Z,13.40
2018-09-05T15:33:49.272Z,14.63
2018-09-05T15:36:17.054Z,14.73
2018-09-05T15:38:44.776Z,13.40
2018-09-05T15:41:12.465Z,13.77
2018-09-05T15:43:40.196Z,14.60
2018-09-05T15:46:07.877Z,11.27
2018-09-05T15:48:35.557Z,13.57
2018-09-05T15:51:03.322Z,12.83
2018-09-05T15:53:30.997Z,12.20
2018-09-05T15:55:58.673Z,11.13
2018-09-05T15:58:26.660Z,11.70
2018-09-05T16:00:54.386Z,12.37
2018-09-05T16:03:22.114Z,10.40
2018-09-05T16:05:49.833Z,10.40
2018-09-05T16:08:17.580Z,11.43
2018-09-05T16:10:45.290Z,10.93
2018-09-05T16:13:13.005Z,11.93
2018-09-05T16:15:40.848Z,11.60
2018-09-05T16:18:08.474Z,10.70
2018-09-05T16:20:36.189Z,11.87
2018-09-05T16:23:03.921Z,12.57
2018-09-05T16:25:31.622Z,12.70
2018-09-05T16:27:59.344Z,11.80
2018-09-05T16:30:27.053Z,13.67
2018-09-05T16:32:54.710Z,14.47
2018-09-05T16:35:22.443Z,15.17
2018-09-05T16:37:50.137Z,13.67
2018-09-05T16:40:17.833Z,9.57
2018-09-05T16:42:45.558Z,8.67
2018-09-05T16:45:13.330Z,8.70
2018-09-05T16:47:41.126Z,10.70
2018-09-05T16:50:08.901Z,11.60
2018-09-05T16:52:36.629Z,13.50
2018-09-05T16:55:04.382Z,13.83
2018-09-05T16:57:32.109Z,14.93
2018-09-05T16:59:59.860Z,15.00
2018-09-05T17:02:27.581Z,15.13
2018-09-05T17:04:55.282Z,15.90
2018-09-05T17:07:22.998Z,14.10
2018-09-05T17:09:50.722Z,13.00
2018-09-05T17:12:18.450Z,11.97
2018-09-05T17:14:46.127Z,10.97
2018-09-05T17:17:13.852Z,10.17
2018-09-05T17:19:41.640Z,11.40
2018-09-05T17:22:09.358Z,11.80
2018-09-05T17:24:37.110Z,12.47
2018-09-05T17:27:04.840Z,13.80
2018-09-05T17:29:32.580Z,13.70
2018-09-05T17:32:00.414Z,12.73
2018-09-05T17:34:28.256Z,13.00
2018-09-05T17:36:55.997Z,12.87
2018-09-05T17:39:23.757Z,12.43
2018-09-05T17:41:51.552Z,12.10
2018-09-05T17:44:19.238Z,12.13
2018-09-05T17:46:46.956Z,13.37
2018-09-05T17:49:14.689Z,13.90
2018-09-05T17:51:42.389Z,14.03
2018-09-05T17:54:10.126Z,14.00
2018-09-05T17:56:37.919Z,15.10
2018-09-05T17:59:05.700Z,14.90
2018-09-05T18:01:33.559Z,15.67
2018-09-05T18:04:01.218Z,15.17
2018-09-05T18:06:28.934Z,15.50
2018-09-05T18:08:56.969Z,14.17
2018-09-05T18:11:24.754Z,14.40
2018-09-05T18:13:52.484Z,13.37
2018-09-05T18:16:20.202Z,13.77
2018-09-05T18:18:48.010Z,15.30
2018-09-05T18:21:15.696Z,13.77
2018-09-05T18:23:43.407Z,14.00
2018-09-05T18:26:11.164Z,12.70
2018-09-05T18:28:38.890Z,13.17
2018-09-05T18:31:06.640Z,12.10
2018-09-05T18:33:34.403Z,12.30
2018-09-05T18:36:02.131Z,10.43
2018-09-05T18:38:30.699Z,11.47
2018-09-05T18:40:58.421Z,10.57
2018-09-05T18:43:26.100Z,11.27
2018-09-05T18:45:53.797Z,10.73
2018-09-05T18:48:21.582Z,12.17
2018-09-05T18:50:49.306Z,10.30
2018-09-05T18:53:17.029Z,11.73
2018-09-05T18:55:45.324Z,11.00
2018-09-05T18:58:13.059Z,10.00
2018-09-05T19:00:40.814Z,9.07
2018-09-05T19:03:09.457Z,9.20
2018-09-05T19:05:37.176Z,9.93
2018-09-05T19:08:05.325Z,10.80
2018-09-05T19:10:33.083Z,10.23
2018-09-05T19:13:00.778Z,11.23
2018-09-05T19:15:28.465Z,10.37
2018-09-05T19:17:56.232Z,10.63
2018-09-05T19:20:24.177Z,10.50
2018-09-05T19:22:51.960Z,12.07
2018-09-05T19:25:19.679Z,10.60
2018-09-05T19:27:47.429Z,10.53
2018-09-05T19:30:15.213Z,11.23
2018-09-05T19:32:42.970Z,11.43
2018-09-05T19:35:17.240Z,10.33
2018-09-05T19:37:45.153Z,10.63
2018-09-05T19:40:12.854Z,11.70
2018-09-05T19:42:40.562Z,10.83
2018-09-05T19:45:08.620Z,11.17
2018-09-05T19:47:36.420Z,11.00
2018-09-05T19:50:05.082Z,10.03
2018-09-05T19:52:32.830Z,10.10
2018-09-05T19:55:00.526Z,9.33
2018-09-05T19:57:28.217Z,9.10
2018-09-05T19:59:55.964Z,8.87
2018-09-05T20:02:23.933Z,8.83
2018-09-05T20:04:51.802Z,9.80
2018-09-05T20:07:19.543Z,8.17
2018-09-05T20:09:47.352Z,9.30
2018-09-05T20:12:15.063Z,9.30
2018-09-05T20:14:42.778Z,10.30
2018-09-05T20:17:10.505Z,10.53
2018-09-05T20:19:38.535Z,9.10
2018-09-05T20:22:08.520Z,8.20
2018-09-05T20:24:36.370Z,9.17
2018-09-05T20:27:04.087Z,8.40
2018-09-05T20:29:31.840Z,9.90
2018-09-05T20:31:59.558Z,8.53
2018-09-05T20:34:27.293Z,9.37
2018-09-05T20:36:55.116Z,9.53
2018-09-05T20:39:22.828Z,10.37
2018-09-05T20:41:50.498Z,10.90
2018-09-05T20:44:18.204Z,11.03
2018-09-05T20:46:45.926Z,11.37
2018-09-05T20:49:13.565Z,12.03
2018-09-05T20:51:41.276Z,11.87
2018-09-05T20:54:09.034Z,11.80
2018-09-05T20:56:36.758Z,11.70
2018-09-05T20:59:04.788Z,11.43
2018-09-05T21:01:32.481Z,11.80
2018-09-05T21:04:00.166Z,13.20
2018-09-05T21:06:27.943Z,12.00
2018-09-05T21:08:55.677Z,10.97
2018-09-05T21:11:23.422Z,12.23
2018-09-05T21:13:51.183Z,13.03
2018-09-05T21:16:18.964Z,14.27
2018-09-05T21:18:46.688Z,15.43
2018-09-05T21:21:14.406Z,13.40
2018-09-05T21:23:42.109Z,12.87
2018-09-05T21:26:09.845Z,13.00
2018-09-05T21:28:37.625Z,16.80
2018-09-05T21:31:05.429Z,18.10
2018-09-05T21:33:33.150Z,18.53
2018-09-05T21:36:00.867Z,18.63
2018-09-05T21:38:28.553Z,19.40
2018-09-05T21:40:57.093Z,18.33
2018-09-05T21:43:24.896Z,15.30
2018-09-05T21:45:52.666Z,17.07
2018-09-05T21:48:20.468Z,18.63
2018-09-05T21:50:48.148Z,17.07
2018-09-05T21:53:15.840Z,17.60
2018-09-05T21:55:43.538Z,19.03
2018-09-05T21:58:11.208Z,19.60
2018-09-05T22:00:38.949Z,21.73
2018-09-05T22:03:06.675Z,20.40
2018-09-05T22:05:34.403Z,21.13
2018-09-05T22:08:02.087Z,16.37
2018-09-05T22:10:29.772Z,13.63
2018-09-05T22:12:57.549Z,12.70
2018-09-05T22:15:25.223Z,11.07
2018-09-05T22:17:52.946Z,11.60
2018-09-05T22:20:20.646Z,11.00
2018-09-05T22:22:48.347Z,10.77
2018-09-05T22:25:16.048Z,9.53
2018-09-05T22:27:43.753Z,11.00
2018-09-05T22:30:11.410Z,10.90
2018-09-05T22:32:39.064Z,11.07
2018-09-05T22:35:06.820Z,10.93
2018-09-05T22:37:34.477Z,10.93
2018-09-05T22:40:02.169Z,11.27
2018-09-05T22:42:29.863Z,11.87
2018-09-05T22:45:08.726Z,11.17
2018-09-05T22:47:51.069Z,11.50
2018-09-05T22:50:40.366Z,11.40
2018-09-05T22:53:28.499Z,11.33
2018-09-05T22:57:43.165Z,10.87
2018-09-05T23:00:25.520Z,11.27
2018-09-05T23:03:02.166Z,11.30
2018-09-05T23:05:41.679Z,11.87
2018-09-05T23:08:44.646Z,12.80
2018-09-05T23:11:23.547Z,12.20
2018-09-05T23:15:04.143Z,11.00
2018-09-05T23:17:43.103Z,12.07
2018-09-05T23:20:30.568Z,11.50
2018-09-05T23:23:09.264Z,11.60
2018-09-05T23:25:36.978Z,11.23
2018-09-05T23:28:04.995Z,11.90
2018-09-05T23:30:32.695Z,11.03
2018-09-05T23:33:00.380Z,11.40
2018-09-05T23:35:28.081Z,10.63
2018-09-05T23:37:55.812Z,11.13
2018-09-05T23:40:23.496Z,10.67
2018-09-05T23:42:51.166Z,10.43
2018-09-05T23:45:18.876Z,10.43
2018-09-05T23:47:46.548Z,10.37
2018-09-05T23:50:14.254Z,10.73
2018-09-05T23:52:41.963Z,10.20
2018-09-05T23:55:09.665Z,10.97
2018-09-05T23:57:37.372Z,10.00
